sensor_id;sensor_type;location;lat;lon;timestamp;temperature;humidity
3348;DHT22;1687;49.540;8.574;2022-07-23T00:01:33;25.20;52.90
3348;DHT22;1687;49.540;8.574;2022-07-23T00:03:59;25.20;52.90
3348;DHT22;1687;49.540;8.574;2022-07-23T00:06:25;25.20;52.90
3348;DHT22;1687;49.540;8.574;2022-07-23T00:08:51;25.30;52.90
3348;DHT22;1687;49.540;8.574;2022-07-23T00:11:17;25.20;52.80
3348;DHT22;1687;49.540;8.574;2022-07-23T00:13:42;25.00;52.80
3348;DHT22;1687;49.540;8.574;2022-07-23T00:16:08;24.90;53.00
3348;DHT22;1687;49.540;8.574;2022-07-23T00:18:35;24.80;53.20
3348;DHT22;1687;49.540;8.574;2022-07-23T00:21:00;24.60;53.40
3348;DHT22;1687;49.540;8.574;2022-07-23T00:23:26;24.50;53.70
3348;DHT22;1687;49.540;8.574;2022-07-23T00:25:54;24.50;53.90
3348;DHT22;1687;49.540;8.574;2022-07-23T00:28:20;24.50;54.00
3348;DHT22;1687;49.540;8.574;2022-07-23T00:30:46;24.50;54.10
3348;DHT22;1687;49.540;8.574;2022-07-23T00:33:11;24.40;54.20
3348;DHT22;1687;49.540;8.574;2022-07-23T00:35:39;24.40;54.30
3348;DHT22;1687;49.540;8.574;2022-07-23T00:38:10;24.30;54.40
3348;DHT22;1687;49.540;8.574;2022-07-23T00:40:36;24.30;54.60
3348;DHT22;1687;49.540;8.574;2022-07-23T00:43:03;24.20;54.70
3348;DHT22;1687;49.540;8.574;2022-07-23T00:45:29;24.30;54.90
3348;DHT22;1687;49.540;8.574;2022-07-23T00:47:56;24.30;55.00
3348;DHT22;1687;49.540;8.574;2022-07-23T00:50:22;24.40;54.90
3348;DHT22;1687;49.540;8.574;2022-07-23T00:52:48;24.40;55.00
3348;DHT22;1687;49.540;8.574;2022-07-23T00:55:14;24.40;55.10
3348;DHT22;1687;49.540;8.574;2022-07-23T00:57:41;24.40;55.20
3348;DHT22;1687;49.540;8.574;2022-07-23T01:00:10;24.30;55.10
3348;DHT22;1687;49.540;8.574;2022-07-23T01:02:38;24.30;55.30
3348;DHT22;1687;49.540;8.574;2022-07-23T01:05:04;24.30;55.30
3348;DHT22;1687;49.540;8.574;2022-07-23T01:07:30;24.30;55.40
3348;DHT22;1687;49.540;8.574;2022-07-23T01:09:56;24.30;55.50
3348;DHT22;1687;49.540;8.574;2022-07-23T01:12:22;24.30;55.40
3348;DHT22;1687;49.540;8.574;2022-07-23T01:14:55;24.30;55.50
3348;DHT22;1687;49.540;8.574;2022-07-23T01:17:21;24.30;55.80
3348;DHT22;1687;49.540;8.574;2022-07-23T01:19:47;24.40;55.90
3348;DHT22;1687;49.540;8.574;2022-07-23T01:22:13;24.40;55.90
3348;DHT22;1687;49.540;8.574;2022-07-23T01:24:40;24.40;55.80
3348;DHT22;1687;49.540;8.574;2022-07-23T01:27:06;24.30;55.70
3348;DHT22;1687;49.540;8.574;2022-07-23T01:29:31;24.20;55.80
3348;DHT22;1687;49.540;8.574;2022-07-23T01:31:57;24.10;55.90
3348;DHT22;1687;49.540;8.574;2022-07-23T01:34:23;24.00;56.10
3348;DHT22;1687;49.540;8.574;2022-07-23T01:36:48;23.90;56.20
3348;DHT22;1687;49.540;8.574;2022-07-23T01:39:14;23.90;56.30
3348;DHT22;1687;49.540;8.574;2022-07-23T01:41:40;24.00;56.50
3348;DHT22;1687;49.540;8.574;2022-07-23T01:44:06;24.00;56.40
3348;DHT22;1687;49.540;8.574;2022-07-23T01:46:32;24.10;56.60
3348;DHT22;1687;49.540;8.574;2022-07-23T01:48:57;24.20;56.60
3348;DHT22;1687;49.540;8.574;2022-07-23T01:51:23;24.30;56.80
3348;DHT22;1687;49.540;8.574;2022-07-23T01:53:49;24.30;56.50
3348;DHT22;1687;49.540;8.574;2022-07-23T01:56:14;24.30;56.60
3348;DHT22;1687;49.540;8.574;2022-07-23T01:58:40;24.30;56.60
3348;DHT22;1687;49.540;8.574;2022-07-23T02:01:06;24.10;56.40
3348;DHT22;1687;49.540;8.574;2022-07-23T02:03:32;24.00;56.50
3348;DHT22;1687;49.540;8.574;2022-07-23T02:05:57;24.00;56.70
3348;DHT22;1687;49.540;8.574;2022-07-23T02:08:23;24.10;56.70
3348;DHT22;1687;49.540;8.574;2022-07-23T02:10:49;24.00;56.80
3348;DHT22;1687;49.540;8.574;2022-07-23T02:13:16;23.90;56.80
3348;DHT22;1687;49.540;8.574;2022-07-23T02:15:42;23.80;56.90
3348;DHT22;1687;49.540;8.574;2022-07-23T02:18:08;23.70;57.00
3348;DHT22;1687;49.540;8.574;2022-07-23T02:20:34;23.60;57.10
3348;DHT22;1687;49.540;8.574;2022-07-23T02:22:59;23.50;57.10
3348;DHT22;1687;49.540;8.574;2022-07-23T02:25:25;23.50;57.40
3348;DHT22;1687;49.540;8.574;2022-07-23T02:27:51;23.40;57.30
3348;DHT22;1687;49.540;8.574;2022-07-23T02:30:17;23.40;57.40
3348;DHT22;1687;49.540;8.574;2022-07-23T02:32:42;23.40;57.60
3348;DHT22;1687;49.540;8.574;2022-07-23T02:35:08;23.30;57.60
3348;DHT22;1687;49.540;8.574;2022-07-23T02:37:34;23.30;57.80
3348;DHT22;1687;49.540;8.574;2022-07-23T02:39:59;23.20;57.80
3348;DHT22;1687;49.540;8.574;2022-07-23T02:42:25;23.20;58.10
3348;DHT22;1687;49.540;8.574;2022-07-23T02:44:52;23.30;58.20
3348;DHT22;1687;49.540;8.574;2022-07-23T02:47:17;23.30;58.20
3348;DHT22;1687;49.540;8.574;2022-07-23T02:49:43;23.30;58.20
3348;DHT22;1687;49.540;8.574;2022-07-23T02:52:09;23.40;58.40
3348;DHT22;1687;49.540;8.574;2022-07-23T02:54:36;23.40;58.40
3348;DHT22;1687;49.540;8.574;2022-07-23T02:57:03;23.40;58.40
3348;DHT22;1687;49.540;8.574;2022-07-23T02:59:29;23.40;58.50
3348;DHT22;1687;49.540;8.574;2022-07-23T03:01:55;23.30;58.50
3348;DHT22;1687;49.540;8.574;2022-07-23T03:04:20;23.30;58.60
3348;DHT22;1687;49.540;8.574;2022-07-23T03:06:46;23.40;58.70
3348;DHT22;1687;49.540;8.574;2022-07-23T03:09:12;23.30;58.50
3348;DHT22;1687;49.540;8.574;2022-07-23T03:11:37;23.20;58.60
3348;DHT22;1687;49.540;8.574;2022-07-23T03:14:03;23.10;58.60
3348;DHT22;1687;49.540;8.574;2022-07-23T03:16:29;23.10;58.90
3348;DHT22;1687;49.540;8.574;2022-07-23T03:18:54;23.10;58.80
3348;DHT22;1687;49.540;8.574;2022-07-23T03:21:20;23.10;58.90
3348;DHT22;1687;49.540;8.574;2022-07-23T03:23:46;23.00;58.80
3348;DHT22;1687;49.540;8.574;2022-07-23T03:26:11;22.90;59.60
3348;DHT22;1687;49.540;8.574;2022-07-23T03:28:37;22.90;59.30
3348;DHT22;1687;49.540;8.574;2022-07-23T03:31:03;22.80;59.20
3348;DHT22;1687;49.540;8.574;2022-07-23T03:33:28;22.80;59.30
3348;DHT22;1687;49.540;8.574;2022-07-23T03:35:54;22.80;59.40
3348;DHT22;1687;49.540;8.574;2022-07-23T03:38:20;22.80;59.60
3348;DHT22;1687;49.540;8.574;2022-07-23T03:40:45;22.80;59.70
3348;DHT22;1687;49.540;8.574;2022-07-23T03:43:11;22.90;59.70
3348;DHT22;1687;49.540;8.574;2022-07-23T03:45:37;22.90;59.70
3348;DHT22;1687;49.540;8.574;2022-07-23T03:48:03;22.80;59.70
3348;DHT22;1687;49.540;8.574;2022-07-23T03:50:28;22.80;59.90
3348;DHT22;1687;49.540;8.574;2022-07-23T03:52:54;22.70;59.90
3348;DHT22;1687;49.540;8.574;2022-07-23T03:55:20;22.70;60.10
3348;DHT22;1687;49.540;8.574;2022-07-23T03:57:45;22.80;60.20
3348;DHT22;1687;49.540;8.574;2022-07-23T04:00:12;22.80;60.30
3348;DHT22;1687;49.540;8.574;2022-07-23T04:02:39;22.90;60.40
3348;DHT22;1687;49.540;8.574;2022-07-23T04:05:05;22.80;60.20
3348;DHT22;1687;49.540;8.574;2022-07-23T04:07:32;22.80;60.40
3348;DHT22;1687;49.540;8.574;2022-07-23T04:09:57;22.80;60.60
3348;DHT22;1687;49.540;8.574;2022-07-23T04:12:24;22.80;60.60
3348;DHT22;1687;49.540;8.574;2022-07-23T04:14:50;22.80;60.80
3348;DHT22;1687;49.540;8.574;2022-07-23T04:17:16;22.90;60.80
3348;DHT22;1687;49.540;8.574;2022-07-23T04:19:42;22.90;60.80
3348;DHT22;1687;49.540;8.574;2022-07-23T04:22:10;22.80;60.70
3348;DHT22;1687;49.540;8.574;2022-07-23T04:24:36;22.80;60.90
3348;DHT22;1687;49.540;8.574;2022-07-23T04:27:02;22.70;60.70
3348;DHT22;1687;49.540;8.574;2022-07-23T04:29:29;22.50;60.60
3348;DHT22;1687;49.540;8.574;2022-07-23T04:31:55;22.40;61.00
3348;DHT22;1687;49.540;8.574;2022-07-23T04:34:20;22.30;61.30
3348;DHT22;1687;49.540;8.574;2022-07-23T04:36:47;22.20;61.60
3348;DHT22;1687;49.540;8.574;2022-07-23T04:39:13;22.10;61.80
3348;DHT22;1687;49.540;8.574;2022-07-23T04:41:38;22.00;62.10
3348;DHT22;1687;49.540;8.574;2022-07-23T04:44:04;22.10;62.50
3348;DHT22;1687;49.540;8.574;2022-07-23T04:46:30;22.10;62.50
3348;DHT22;1687;49.540;8.574;2022-07-23T04:48:56;22.00;62.60
3348;DHT22;1687;49.540;8.574;2022-07-23T04:51:21;22.00;62.80
3348;DHT22;1687;49.540;8.574;2022-07-23T04:53:47;22.00;63.10
3348;DHT22;1687;49.540;8.574;2022-07-23T04:56:13;22.10;63.60
3348;DHT22;1687;49.540;8.574;2022-07-23T04:58:38;22.10;63.20
3348;DHT22;1687;49.540;8.574;2022-07-23T05:01:04;22.00;63.50
3348;DHT22;1687;49.540;8.574;2022-07-23T05:03:30;22.10;64.00
3348;DHT22;1687;49.540;8.574;2022-07-23T05:05:56;22.00;63.70
3348;DHT22;1687;49.540;8.574;2022-07-23T05:08:21;21.90;63.90
3348;DHT22;1687;49.540;8.574;2022-07-23T05:10:47;21.90;64.10
3348;DHT22;1687;49.540;8.574;2022-07-23T05:13:14;21.80;64.40
3348;DHT22;1687;49.540;8.574;2022-07-23T05:15:41;21.80;64.70
3348;DHT22;1687;49.540;8.574;2022-07-23T05:18:07;21.70;64.70
3348;DHT22;1687;49.540;8.574;2022-07-23T05:20:33;21.70;65.10
3348;DHT22;1687;49.540;8.574;2022-07-23T05:22:59;21.60;65.30
3348;DHT22;1687;49.540;8.574;2022-07-23T05:25:24;21.60;65.50
3348;DHT22;1687;49.540;8.574;2022-07-23T05:27:50;21.70;66.20
3348;DHT22;1687;49.540;8.574;2022-07-23T05:30:16;21.80;66.30
3348;DHT22;1687;49.540;8.574;2022-07-23T05:32:41;21.80;66.10
3348;DHT22;1687;49.540;8.574;2022-07-23T05:35:08;21.80;66.40
3348;DHT22;1687;49.540;8.574;2022-07-23T05:37:33;21.90;66.90
3348;DHT22;1687;49.540;8.574;2022-07-23T05:40:03;21.90;66.70
3348;DHT22;1687;49.540;8.574;2022-07-23T05:42:35;21.90;66.90
3348;DHT22;1687;49.540;8.574;2022-07-23T05:45:03;21.90;66.90
3348;DHT22;1687;49.540;8.574;2022-07-23T05:47:49;21.80;67.00
3348;DHT22;1687;49.540;8.574;2022-07-23T05:50:15;21.70;67.20
3348;DHT22;1687;49.540;8.574;2022-07-23T05:52:42;21.80;67.90
3348;DHT22;1687;49.540;8.574;2022-07-23T05:55:09;21.90;67.80
3348;DHT22;1687;49.540;8.574;2022-07-23T05:57:35;21.90;67.80
3348;DHT22;1687;49.540;8.574;2022-07-23T06:00:04;21.90;68.00
3348;DHT22;1687;49.540;8.574;2022-07-23T06:02:30;21.90;67.80
3348;DHT22;1687;49.540;8.574;2022-07-23T06:04:56;21.80;68.30
3348;DHT22;1687;49.540;8.574;2022-07-23T06:07:22;22.00;68.40
3348;DHT22;1687;49.540;8.574;2022-07-23T06:09:48;21.90;68.20
3348;DHT22;1687;49.540;8.574;2022-07-23T06:12:15;21.90;68.50
3348;DHT22;1687;49.540;8.574;2022-07-23T06:14:41;21.70;68.10
3348;DHT22;1687;49.540;8.574;2022-07-23T06:17:07;21.80;68.80
3348;DHT22;1687;49.540;8.574;2022-07-23T06:19:33;21.90;68.90
3348;DHT22;1687;49.540;8.574;2022-07-23T06:21:58;22.10;69.10
3348;DHT22;1687;49.540;8.574;2022-07-23T06:24:24;22.30;69.60
3348;DHT22;1687;49.540;8.574;2022-07-23T06:26:50;22.40;69.90
3348;DHT22;1687;49.540;8.574;2022-07-23T06:29:16;22.60;69.60
3348;DHT22;1687;49.540;8.574;2022-07-23T06:31:41;22.70;69.40
3348;DHT22;1687;49.540;8.574;2022-07-23T06:34:07;22.70;69.50
3348;DHT22;1687;49.540;8.574;2022-07-23T06:36:33;22.80;69.60
3348;DHT22;1687;49.540;8.574;2022-07-23T06:38:58;22.90;69.30
3348;DHT22;1687;49.540;8.574;2022-07-23T06:41:24;22.90;69.00
3348;DHT22;1687;49.540;8.574;2022-07-23T06:43:50;22.70;68.70
3348;DHT22;1687;49.540;8.574;2022-07-23T06:46:15;22.60;69.10
3348;DHT22;1687;49.540;8.574;2022-07-23T06:48:41;22.60;69.60
3348;DHT22;1687;49.540;8.574;2022-07-23T06:51:06;22.80;69.90
3348;DHT22;1687;49.540;8.574;2022-07-23T06:53:32;23.00;69.80
3348;DHT22;1687;49.540;8.574;2022-07-23T06:55:58;22.90;69.20
3348;DHT22;1687;49.540;8.574;2022-07-23T06:58:23;22.80;69.20
3348;DHT22;1687;49.540;8.574;2022-07-23T07:00:49;22.80;69.60
3348;DHT22;1687;49.540;8.574;2022-07-23T07:03:17;22.80;69.60
3348;DHT22;1687;49.540;8.574;2022-07-23T07:05:43;22.80;69.50
3348;DHT22;1687;49.540;8.574;2022-07-23T07:08:09;22.70;69.50
3348;DHT22;1687;49.540;8.574;2022-07-23T07:10:34;22.60;69.30
3348;DHT22;1687;49.540;8.574;2022-07-23T07:13:00;22.50;69.40
3348;DHT22;1687;49.540;8.574;2022-07-23T07:15:26;22.60;70.00
3348;DHT22;1687;49.540;8.574;2022-07-23T07:17:51;22.60;69.70
3348;DHT22;1687;49.540;8.574;2022-07-23T07:20:17;22.50;69.60
3348;DHT22;1687;49.540;8.574;2022-07-23T07:22:43;22.50;70.20
3348;DHT22;1687;49.540;8.574;2022-07-23T07:25:09;22.70;70.30
3348;DHT22;1687;49.540;8.574;2022-07-23T07:27:34;22.80;70.20
3348;DHT22;1687;49.540;8.574;2022-07-23T07:30:00;22.80;70.00
3348;DHT22;1687;49.540;8.574;2022-07-23T07:32:26;22.90;70.30
3348;DHT22;1687;49.540;8.574;2022-07-23T07:34:52;23.00;70.20
3348;DHT22;1687;49.540;8.574;2022-07-23T07:37:18;22.90;70.00
3348;DHT22;1687;49.540;8.574;2022-07-23T07:39:43;22.90;69.90
3348;DHT22;1687;49.540;8.574;2022-07-23T07:42:09;22.90;70.20
3348;DHT22;1687;49.540;8.574;2022-07-23T07:44:35;23.00;70.20
3348;DHT22;1687;49.540;8.574;2022-07-23T07:47:01;23.10;70.20
3348;DHT22;1687;49.540;8.574;2022-07-23T07:49:27;23.20;70.20
3348;DHT22;1687;49.540;8.574;2022-07-23T07:51:52;23.50;70.50
3348;DHT22;1687;49.540;8.574;2022-07-23T07:54:18;23.60;70.90
3348;DHT22;1687;49.540;8.574;2022-07-23T07:56:44;23.70;70.20
3348;DHT22;1687;49.540;8.574;2022-07-23T07:59:09;23.90;70.20
3348;DHT22;1687;49.540;8.574;2022-07-23T08:01:36;23.90;70.20
3348;DHT22;1687;49.540;8.574;2022-07-23T08:04:02;24.10;70.20
3348;DHT22;1687;49.540;8.574;2022-07-23T08:06:28;24.30;69.80
3348;DHT22;1687;49.540;8.574;2022-07-23T08:08:53;24.40;69.90
3348;DHT22;1687;49.540;8.574;2022-07-23T08:11:19;24.70;70.00
3348;DHT22;1687;49.540;8.574;2022-07-23T08:13:45;24.80;69.50
3348;DHT22;1687;49.540;8.574;2022-07-23T08:16:11;24.60;69.10
3348;DHT22;1687;49.540;8.574;2022-07-23T08:18:37;24.60;69.00
3348;DHT22;1687;49.540;8.574;2022-07-23T08:21:03;24.60;68.80
3348;DHT22;1687;49.540;8.574;2022-07-23T08:23:31;24.50;68.70
3348;DHT22;1687;49.540;8.574;2022-07-23T08:25:56;24.50;68.70
3348;DHT22;1687;49.540;8.574;2022-07-23T08:28:22;24.60;68.70
3348;DHT22;1687;49.540;8.574;2022-07-23T08:30:48;24.60;68.30
3348;DHT22;1687;49.540;8.574;2022-07-23T08:33:15;24.60;68.50
3348;DHT22;1687;49.540;8.574;2022-07-23T08:35:44;24.60;68.40
3348;DHT22;1687;49.540;8.574;2022-07-23T08:38:12;24.80;68.30
3348;DHT22;1687;49.540;8.574;2022-07-23T08:40:42;25.00;68.30
3348;DHT22;1687;49.540;8.574;2022-07-23T08:43:12;25.00;68.00
3348;DHT22;1687;49.540;8.574;2022-07-23T08:45:41;25.00;67.90
3348;DHT22;1687;49.540;8.574;2022-07-23T08:48:12;25.10;67.90
3348;DHT22;1687;49.540;8.574;2022-07-23T08:50:44;25.30;67.60
3348;DHT22;1687;49.540;8.574;2022-07-23T08:53:12;25.40;67.80
3348;DHT22;1687;49.540;8.574;2022-07-23T08:55:42;25.60;67.40
3348;DHT22;1687;49.540;8.574;2022-07-23T08:58:09;25.70;67.10
3348;DHT22;1687;49.540;8.574;2022-07-23T09:00:34;25.80;67.00
3348;DHT22;1687;49.540;8.574;2022-07-23T09:03:00;25.90;66.80
3348;DHT22;1687;49.540;8.574;2022-07-23T09:05:26;26.00;66.30
3348;DHT22;1687;49.540;8.574;2022-07-23T09:08:04;26.10;66.10
3348;DHT22;1687;49.540;8.574;2022-07-23T09:10:46;26.20;65.90
3348;DHT22;1687;49.540;8.574;2022-07-23T09:13:41;26.10;65.50
3348;DHT22;1687;49.540;8.574;2022-07-23T09:16:13;26.10;65.30
3348;DHT22;1687;49.540;8.574;2022-07-23T09:19:01;26.10;65.10
3348;DHT22;1687;49.540;8.574;2022-07-23T09:21:36;26.20;65.00
3348;DHT22;1687;49.540;8.574;2022-07-23T09:24:12;26.30;64.80
3348;DHT22;1687;49.540;8.574;2022-07-23T09:26:43;26.40;64.60
3348;DHT22;1687;49.540;8.574;2022-07-23T09:31:56;26.70;64.40
3348;DHT22;1687;49.540;8.574;2022-07-23T09:34:28;26.80;63.90
3348;DHT22;1687;49.540;8.574;2022-07-23T09:37:11;26.80;63.60
3348;DHT22;1687;49.540;8.574;2022-07-23T09:39:43;26.90;63.40
3348;DHT22;1687;49.540;8.574;2022-07-23T09:42:18;27.00;63.30
3348;DHT22;1687;49.540;8.574;2022-07-23T09:44:54;27.10;63.20
3348;DHT22;1687;49.540;8.574;2022-07-23T09:47:23;27.10;62.70
3348;DHT22;1687;49.540;8.574;2022-07-23T09:50:17;27.20;62.90
3348;DHT22;1687;49.540;8.574;2022-07-23T09:52:49;27.30;62.40
3348;DHT22;1687;49.540;8.574;2022-07-23T09:55:18;27.40;62.40
3348;DHT22;1687;49.540;8.574;2022-07-23T09:57:45;27.50;62.10
3348;DHT22;1687;49.540;8.574;2022-07-23T10:00:15;27.50;61.80
3348;DHT22;1687;49.540;8.574;2022-07-23T10:02:41;27.60;61.90
3348;DHT22;1687;49.540;8.574;2022-07-23T10:05:07;27.70;61.20
3348;DHT22;1687;49.540;8.574;2022-07-23T10:07:36;27.90;61.50
3348;DHT22;1687;49.540;8.574;2022-07-23T10:10:04;28.10;61.30
3348;DHT22;1687;49.540;8.574;2022-07-23T10:12:31;28.40;61.10
3348;DHT22;1687;49.540;8.574;2022-07-23T10:15:17;28.50;60.90
3348;DHT22;1687;49.540;8.574;2022-07-23T10:17:43;28.60;60.50
3348;DHT22;1687;49.540;8.574;2022-07-23T10:20:09;28.70;60.40
3348;DHT22;1687;49.540;8.574;2022-07-23T10:22:38;28.80;60.10
3348;DHT22;1687;49.540;8.574;2022-07-23T10:25:34;29.00;60.10
3348;DHT22;1687;49.540;8.574;2022-07-23T10:34:12;29.20;59.40
3348;DHT22;1687;49.540;8.574;2022-07-23T10:37:07;29.20;59.10
3348;DHT22;1687;49.540;8.574;2022-07-23T10:39:42;29.30;59.10
3348;DHT22;1687;49.540;8.574;2022-07-23T10:42:15;29.30;58.60
3348;DHT22;1687;49.540;8.574;2022-07-23T10:44:45;29.30;58.70
3348;DHT22;1687;49.540;8.574;2022-07-23T10:47:21;29.40;58.50
3348;DHT22;1687;49.540;8.574;2022-07-23T10:53:12;29.40;58.00
3348;DHT22;1687;49.540;8.574;2022-07-23T10:55:51;29.40;57.80
3348;DHT22;1687;49.540;8.574;2022-07-23T10:58:22;29.40;57.70
3348;DHT22;1687;49.540;8.574;2022-07-23T11:01:35;29.30;57.40
3348;DHT22;1687;49.540;8.574;2022-07-23T11:04:03;29.40;57.30
3348;DHT22;1687;49.540;8.574;2022-07-23T11:09:40;29.70;57.00
3348;DHT22;1687;49.540;8.574;2022-07-23T11:15:05;29.90;56.60
3348;DHT22;1687;49.540;8.574;2022-07-23T11:20:25;30.30;56.00
3348;DHT22;1687;49.540;8.574;2022-07-23T11:22:55;30.50;56.00
3348;DHT22;1687;49.540;8.574;2022-07-23T11:27:50;30.60;55.50
3348;DHT22;1687;49.540;8.574;2022-07-23T11:32:53;30.50;55.30
3348;DHT22;1687;49.540;8.574;2022-07-23T11:35:24;30.60;55.30
3348;DHT22;1687;49.540;8.574;2022-07-23T11:37:53;30.50;54.80
3348;DHT22;1687;49.540;8.574;2022-07-23T11:40:24;30.40;54.50
3348;DHT22;1687;49.540;8.574;2022-07-23T11:43:00;30.50;54.70
3348;DHT22;1687;49.540;8.574;2022-07-23T11:45:35;30.60;54.50
3348;DHT22;1687;49.540;8.574;2022-07-23T11:48:07;30.70;54.30
3348;DHT22;1687;49.540;8.574;2022-07-23T11:50:40;30.60;54.10
3348;DHT22;1687;49.540;8.574;2022-07-23T11:53:06;30.70;54.20
3348;DHT22;1687;49.540;8.574;2022-07-23T11:55:31;30.90;54.30
3348;DHT22;1687;49.540;8.574;2022-07-23T11:57:57;31.00;54.10
3348;DHT22;1687;49.540;8.574;2022-07-23T12:00:29;31.10;53.90
3348;DHT22;1687;49.540;8.574;2022-07-23T12:02:59;31.20;53.80
3348;DHT22;1687;49.540;8.574;2022-07-23T12:05:31;31.20;53.60
3348;DHT22;1687;49.540;8.574;2022-07-23T12:07:59;31.20;53.50
3348;DHT22;1687;49.540;8.574;2022-07-23T12:10:33;31.20;53.40
3348;DHT22;1687;49.540;8.574;2022-07-23T12:15:36;30.70;53.20
3348;DHT22;1687;49.540;8.574;2022-07-23T12:18:06;30.70;53.20
3348;DHT22;1687;49.540;8.574;2022-07-23T12:20:41;30.80;53.10
3348;DHT22;1687;49.540;8.574;2022-07-23T12:23:10;30.70;53.10
3348;DHT22;1687;49.540;8.574;2022-07-23T12:25:43;30.60;52.80
3348;DHT22;1687;49.540;8.574;2022-07-23T12:31:08;30.30;52.60
3348;DHT22;1687;49.540;8.574;2022-07-23T12:33:38;30.20;52.80
3348;DHT22;1687;49.540;8.574;2022-07-23T12:36:07;30.10;52.70
3348;DHT22;1687;49.540;8.574;2022-07-23T12:38:46;30.10;52.80
3348;DHT22;1687;49.540;8.574;2022-07-23T12:41:14;30.20;52.80
3348;DHT22;1687;49.540;8.574;2022-07-23T12:43:43;30.20;52.70
3348;DHT22;1687;49.540;8.574;2022-07-23T12:46:15;30.40;52.70
3348;DHT22;1687;49.540;8.574;2022-07-23T12:51:19;30.60;52.30
3348;DHT22;1687;49.540;8.574;2022-07-23T12:53:53;30.70;52.40
3348;DHT22;1687;49.540;8.574;2022-07-23T12:56:31;30.80;52.00
3348;DHT22;1687;49.540;8.574;2022-07-23T12:59:14;30.90;51.90
3348;DHT22;1687;49.540;8.574;2022-07-23T13:01:53;31.00;51.60
3348;DHT22;1687;49.540;8.574;2022-07-23T13:04:21;31.00;51.80
3348;DHT22;1687;49.540;8.574;2022-07-23T13:06:50;31.30;51.80
3348;DHT22;1687;49.540;8.574;2022-07-23T13:09:22;31.30;51.30
3348;DHT22;1687;49.540;8.574;2022-07-23T13:11:54;31.50;51.50
3348;DHT22;1687;49.540;8.574;2022-07-23T13:14:21;31.80;51.40
3348;DHT22;1687;49.540;8.574;2022-07-23T13:16:49;32.00;51.30
3348;DHT22;1687;49.540;8.574;2022-07-23T13:19:16;32.30;50.90
3348;DHT22;1687;49.540;8.574;2022-07-23T13:21:42;32.20;50.60
3348;DHT22;1687;49.540;8.574;2022-07-23T13:24:09;32.20;50.40
3348;DHT22;1687;49.540;8.574;2022-07-23T13:26:36;32.00;50.00
3348;DHT22;1687;49.540;8.574;2022-07-23T13:29:02;32.20;50.40
3348;DHT22;1687;49.540;8.574;2022-07-23T13:31:28;32.30;50.00
3348;DHT22;1687;49.540;8.574;2022-07-23T13:33:54;32.20;50.40
3348;DHT22;1687;49.540;8.574;2022-07-23T13:36:19;31.80;49.40
3348;DHT22;1687;49.540;8.574;2022-07-23T13:38:45;31.50;49.60
3348;DHT22;1687;49.540;8.574;2022-07-23T13:41:11;31.30;49.50
3348;DHT22;1687;49.540;8.574;2022-07-23T13:43:37;31.10;49.50
3348;DHT22;1687;49.540;8.574;2022-07-23T13:46:02;31.00;49.70
3348;DHT22;1687;49.540;8.574;2022-07-23T13:48:28;31.20;50.00
3348;DHT22;1687;49.540;8.574;2022-07-23T13:50:54;31.50;49.50
3348;DHT22;1687;49.540;8.574;2022-07-23T13:53:22;31.40;49.40
3348;DHT22;1687;49.540;8.574;2022-07-23T13:55:51;31.70;49.60
3348;DHT22;1687;49.540;8.574;2022-07-23T13:58:18;32.00;49.60
3348;DHT22;1687;49.540;8.574;2022-07-23T14:00:48;33.60;49.80
3348;DHT22;1687;49.540;8.574;2022-07-23T14:03:16;34.90;49.20
3348;DHT22;1687;49.540;8.574;2022-07-23T14:05:42;36.40;48.80
3348;DHT22;1687;49.540;8.574;2022-07-23T14:08:08;37.70;48.10
3348;DHT22;1687;49.540;8.574;2022-07-23T14:10:34;39.00;47.00
3348;DHT22;1687;49.540;8.574;2022-07-23T14:12:59;39.70;46.20
3348;DHT22;1687;49.540;8.574;2022-07-23T14:15:27;40.90;45.60
3348;DHT22;1687;49.540;8.574;2022-07-23T14:17:54;41.60;44.00
3348;DHT22;1687;49.540;8.574;2022-07-23T14:20:20;40.40;42.40
3348;DHT22;1687;49.540;8.574;2022-07-23T14:22:46;39.60;42.50
3348;DHT22;1687;49.540;8.574;2022-07-23T14:25:12;40.10;43.10
3348;DHT22;1687;49.540;8.574;2022-07-23T14:27:38;41.00;42.60
3348;DHT22;1687;49.540;8.574;2022-07-23T14:30:06;41.40;41.80
3348;DHT22;1687;49.540;8.574;2022-07-23T14:32:32;42.20;41.60
3348;DHT22;1687;49.540;8.574;2022-07-23T14:34:58;43.30;41.40
3348;DHT22;1687;49.540;8.574;2022-07-23T14:37:24;43.50;39.70
3348;DHT22;1687;49.540;8.574;2022-07-23T14:39:50;43.50;38.40
3348;DHT22;1687;49.540;8.574;2022-07-23T14:42:17;43.70;38.90
3348;DHT22;1687;49.540;8.574;2022-07-23T14:44:51;43.10;37.60
3348;DHT22;1687;49.540;8.574;2022-07-23T14:47:16;43.30;38.40
3348;DHT22;1687;49.540;8.574;2022-07-23T14:49:42;43.70;37.90
3348;DHT22;1687;49.540;8.574;2022-07-23T14:52:08;43.60;37.00
3348;DHT22;1687;49.540;8.574;2022-07-23T14:54:34;43.10;36.70
3348;DHT22;1687;49.540;8.574;2022-07-23T14:57:02;43.00;37.10
3348;DHT22;1687;49.540;8.574;2022-07-23T14:59:29;44.00;37.50
3348;DHT22;1687;49.540;8.574;2022-07-23T15:01:56;45.10;36.50
3348;DHT22;1687;49.540;8.574;2022-07-23T15:04:23;44.10;34.80
3348;DHT22;1687;49.540;8.574;2022-07-23T15:06:49;42.70;35.00
3348;DHT22;1687;49.540;8.574;2022-07-23T15:09:15;42.00;35.40
3348;DHT22;1687;49.540;8.574;2022-07-23T15:11:41;42.10;36.10
3348;DHT22;1687;49.540;8.574;2022-07-23T15:14:07;43.00;35.90
3348;DHT22;1687;49.540;8.574;2022-07-23T15:16:34;44.10;35.90
3348;DHT22;1687;49.540;8.574;2022-07-23T15:19:01;43.90;34.90
3348;DHT22;1687;49.540;8.574;2022-07-23T15:21:27;42.70;34.50
3348;DHT22;1687;49.540;8.574;2022-07-23T15:23:55;41.10;34.60
3348;DHT22;1687;49.540;8.574;2022-07-23T15:26:27;39.70;35.00
3348;DHT22;1687;49.540;8.574;2022-07-23T15:28:54;38.60;35.40
3348;DHT22;1687;49.540;8.574;2022-07-23T15:31:20;37.60;35.60
3348;DHT22;1687;49.540;8.574;2022-07-23T15:33:46;37.30;36.50
3348;DHT22;1687;49.540;8.574;2022-07-23T15:36:12;37.70;36.70
3348;DHT22;1687;49.540;8.574;2022-07-23T15:38:38;38.40;36.70
3348;DHT22;1687;49.540;8.574;2022-07-23T15:41:04;38.70;36.50
3348;DHT22;1687;49.540;8.574;2022-07-23T15:43:29;38.70;36.50
3348;DHT22;1687;49.540;8.574;2022-07-23T15:45:56;39.20;36.00
3348;DHT22;1687;49.540;8.574;2022-07-23T15:48:22;38.60;35.70
3348;DHT22;1687;49.540;8.574;2022-07-23T15:50:47;37.60;35.70
3348;DHT22;1687;49.540;8.574;2022-07-23T15:53:13;36.90;36.10
3348;DHT22;1687;49.540;8.574;2022-07-23T15:55:39;36.60;36.40
3348;DHT22;1687;49.540;8.574;2022-07-23T15:58:06;36.30;36.50
3348;DHT22;1687;49.540;8.574;2022-07-23T16:00:33;35.80;36.60
3348;DHT22;1687;49.540;8.574;2022-07-23T16:02:58;35.30;36.80
3348;DHT22;1687;49.540;8.574;2022-07-23T16:05:24;34.70;37.10
3348;DHT22;1687;49.540;8.574;2022-07-23T16:07:50;34.30;37.40
3348;DHT22;1687;49.540;8.574;2022-07-23T16:10:16;33.90;37.40
3348;DHT22;1687;49.540;8.574;2022-07-23T16:12:41;33.70;37.90
3348;DHT22;1687;49.540;8.574;2022-07-23T16:15:07;33.50;38.10
3348;DHT22;1687;49.540;8.574;2022-07-23T16:17:33;33.30;38.20
3348;DHT22;1687;49.540;8.574;2022-07-23T16:19:59;33.20;38.40
3348;DHT22;1687;49.540;8.574;2022-07-23T16:22:25;33.20;38.50
3348;DHT22;1687;49.540;8.574;2022-07-23T16:24:51;33.10;38.70
3348;DHT22;1687;49.540;8.574;2022-07-23T16:27:16;32.90;38.80
3348;DHT22;1687;49.540;8.574;2022-07-23T16:29:42;32.80;38.90
3348;DHT22;1687;49.540;8.574;2022-07-23T16:32:08;32.80;39.20
3348;DHT22;1687;49.540;8.574;2022-07-23T16:34:33;32.80;39.20
3348;DHT22;1687;49.540;8.574;2022-07-23T16:36:59;32.70;39.20
3348;DHT22;1687;49.540;8.574;2022-07-23T16:39:25;32.70;39.40